Rockaway, Oregon
Current Conditions -  °F | °C
As of 2:18 AM on Sunday 25 Jan 2015 (Local Time) from KHIO Reporting Station
Moderate Fog Moderate Fog  
Wind Chill: 43°   Ceiling: 200
Heat Index: 43°   Visibility: 0.5mi
Dew Point: 43°   Wind: 0mph
Humidity: 100%   Direction: NA
Pressure: 30.23"   Gusts: NA
Location:  45.6132°N, 123.654°W
Report Text: KHIO 251018Z 00000KT 1/2SM R13/3500V4500FT FG VV002 06/06 A3023 RMK AO2 T00610061
Loading
Personal Weather Stations






























Interactive Weather Map New forecast layout! Learn more

10-Day Weather Forecast

Advertisements
Track Severe Weather on mobile